Impacts METAR Board
IDs:

KPHL - Philadelphia Intl, PA, US

Updated at: 0000 UTC 23 Jun 2018
Potential Impact None Slight Moderate High
Time 22/12Z 22/13Z 22/14Z 22/15Z 22/16Z 22/17Z 22/18Z 22/19Z 22/20Z 22/21Z 22/22Z 22/23Z 23/00Z
Temp68 69 71 71 71 71 70 70 71 70 69 68 66
Dewpt63 63 63 62 62 61 61 61 61 60 61 61 62
Altim29.94 29.96 29.96 29.98 29.99 29.99 29.99 29.98 29.96 29.96 29.96 29.96 29.97
VIS10 10 10 10 10 10 10 10 10 10 10 10 10
CIG170 14 18 21 24 27 70 110 100 160 110 22 70
CoverBKNOVCOVCOVCOVCOVCOVCOVCOVCOVCOVCOVCOVC
FltCatVFRMVFRMVFRMVFRMVFRMVFRVFRVFRVFRVFRVFRMVFRVFR
WX-------------RA-RA---------RA
WDir9080909090100909090110808090
WSpd10 12 13 11 11 11 14 12 12 12 13 12 10
WGst-- -- -- -- -- -- -- -- -- -- -- -- --
Raw hourly METARs
KPHL 221154Z 09010KT 10SM SCT011 SCT120 BKN170 20/17 A2994 RMK AO2 SLP139 T02000172 10228 20200 51021 $
KPHL 221254Z 08012KT 10SM BKN014 OVC150 21/17 A2996 RMK AO2 SLP144 T02060172
KPHL 221354Z 09013KT 10SM BKN018 OVC140 22/17 A2996 RMK AO2 SLP144 T02170172
KPHL 221454Z 09011KT 10SM BKN021 OVC140 22/17 A2998 RMK AO2 SLP152 T02170167 53013
KPHL 221554Z 09011KT 10SM BKN024 BKN029 OVC130 22/17 A2999 RMK AO2 SLP153 T02170167
KPHL 221654Z 10011KT 10SM SCT024 BKN027 OVC130 22/16 A2999 RMK AO2 SLP154 T02170161
KPHL 221754Z 09014KT 10SM -RA SCT026 BKN070 OVC110 21/16 A2999 RMK AO2 RAB15 SLP153 P0000 60000 T02110161 10217 20200 50002
KPHL 221854Z 09012KT 10SM -RA FEW025 SCT070 OVC110 21/16 A2998 RMK AO2 SLP150 P0000 T02110161
KPHL 221954Z 09012KT 10SM SCT027 SCT038 BKN100 OVC150 22/16 A2996 RMK AO2 RAE23 SLP146 P0000 T02170161
KPHL 222054Z 11012KT 10SM FEW026 FEW080 SCT110 OVC160 21/16 A2996 RMK AO2 SLP146 60000 T02110156 56007
KPHL 222154Z 08013KT 10SM FEW024 SCT080 BKN110 OVC160 21/16 A2996 RMK AO2 RAB04E32 SLP144 P0000 T02060161
KPHL 222254Z 08012KT 10SM BKN022 BKN028 OVC080 20/16 A2996 RMK AO2 RAB05E27 SLP145 P0000 T02000161
KPHL 222354Z 09010KT 10SM -RA SCT017 BKN070 OVC130 19/17 A2997 RMK AO2 RAB08 SLP147 P0001 60001 T01890167 10228 20189 53001



Page loaded:  00:11 UTC  |   05:11 PM Pacific  |   06:11 PM Mountain  |   07:11 PM Central  |   08:11 PM Eastern

 

ADVISORIES

FORECASTS

FORECASTS

OBSERVATIONS

USER TOOLS

ABOUT US